sensor_id;sensor_type;location;lat;lon;timestamp;P1;durP1;ratioP1;P2;durP2;ratioP2
77400;SDS011;66855;45.414;11.082;2023-05-07T00:02:26;16.70;;;14.50;;
77400;SDS011;66855;45.414;11.082;2023-05-07T00:04:53;13.50;;;11.80;;
77400;SDS011;66855;45.414;11.082;2023-05-07T00:07:22;16.30;;;13.00;;
77400;SDS011;66855;45.414;11.082;2023-05-07T00:12:16;15.10;;;11.50;;
77400;SDS011;66855;45.414;11.082;2023-05-07T00:14:42;15.10;;;12.60;;
77400;SDS011;66855;45.414;11.082;2023-05-07T00:17:09;15.00;;;11.90;;
77400;SDS011;66855;45.414;11.082;2023-05-07T00:19:36;11.90;;;10.20;;
77400;SDS011;66855;45.414;11.082;2023-05-07T00:22:03;13.20;;;10.00;;
77400;SDS011;66855;45.414;11.082;2023-05-07T00:24:29;13.60;;;10.90;;
77400;SDS011;66855;45.414;11.082;2023-05-07T00:26:56;14.40;;;12.20;;
77400;SDS011;66855;45.414;11.082;2023-05-07T00:29:24;12.50;;;10.60;;
77400;SDS011;66855;45.414;11.082;2023-05-07T00:31:53;11.30;;;9.50;;
77400;SDS011;66855;45.414;11.082;2023-05-07T00:34:21;12.50;;;10.20;;
77400;SDS011;66855;45.414;11.082;2023-05-07T00:36:49;12.70;;;9.40;;
77400;SDS011;66855;45.414;11.082;2023-05-07T00:39:15;13.80;;;10.50;;
77400;SDS011;66855;45.414;11.082;2023-05-07T00:41:42;12.50;;;9.70;;
77400;SDS011;66855;45.414;11.082;2023-05-07T00:44:09;12.90;;;10.70;;
77400;SDS011;66855;45.414;11.082;2023-05-07T00:46:35;14.40;;;12.20;;
77400;SDS011;66855;45.414;11.082;2023-05-07T00:49:03;15.20;;;11.30;;
77400;SDS011;66855;45.414;11.082;2023-05-07T00:51:30;14.00;;;11.70;;
77400;SDS011;66855;45.414;11.082;2023-05-07T00:53:57;14.60;;;12.30;;
77400;SDS011;66855;45.414;11.082;2023-05-07T00:56:24;16.50;;;13.60;;
77400;SDS011;66855;45.414;11.082;2023-05-07T00:58:51;17.10;;;13.40;;
77400;SDS011;66855;45.414;11.082;2023-05-07T01:01:18;17.00;;;13.30;;
77400;SDS011;66855;45.414;11.082;2023-05-07T01:03:45;15.00;;;12.30;;
77400;SDS011;66855;45.414;11.082;2023-05-07T01:06:12;14.70;;;12.60;;
77400;SDS011;66855;45.414;11.082;2023-05-07T01:08:43;19.00;;;12.80;;
77400;SDS011;66855;45.414;11.082;2023-05-07T01:11:10;14.50;;;11.70;;
77400;SDS011;66855;45.414;11.082;2023-05-07T01:13:37;15.20;;;12.80;;
77400;SDS011;66855;45.414;11.082;2023-05-07T01:16:05;15.80;;;12.00;;
77400;SDS011;66855;45.414;11.082;2023-05-07T01:18:32;16.10;;;12.20;;
77400;SDS011;66855;45.414;11.082;2023-05-07T01:20:59;16.70;;;12.90;;
77400;SDS011;66855;45.414;11.082;2023-05-07T01:23:28;18.10;;;13.90;;
77400;SDS011;66855;45.414;11.082;2023-05-07T01:25:56;15.40;;;13.20;;
77400;SDS011;66855;45.414;11.082;2023-05-07T01:28:25;15.20;;;12.50;;
77400;SDS011;66855;45.414;11.082;2023-05-07T01:31:00;15.00;;;12.40;;
77400;SDS011;66855;45.414;11.082;2023-05-07T01:33:31;17.50;;;13.20;;
77400;SDS011;66855;45.414;11.082;2023-05-07T01:36:00;18.30;;;13.60;;
77400;SDS011;66855;45.414;11.082;2023-05-07T01:38:29;18.60;;;13.50;;
77400;SDS011;66855;45.414;11.082;2023-05-07T01:40:56;18.30;;;14.60;;
77400;SDS011;66855;45.414;11.082;2023-05-07T01:43:23;17.60;;;14.30;;
77400;SDS011;66855;45.414;11.082;2023-05-07T01:45:49;17.50;;;13.70;;
77400;SDS011;66855;45.414;11.082;2023-05-07T01:48:16;16.10;;;12.90;;
77400;SDS011;66855;45.414;11.082;2023-05-07T01:50:44;17.90;;;13.30;;
77400;SDS011;66855;45.414;11.082;2023-05-07T01:53:11;17.00;;;13.80;;
77400;SDS011;66855;45.414;11.082;2023-05-07T01:55:37;17.40;;;14.00;;
77400;SDS011;66855;45.414;11.082;2023-05-07T01:58:04;18.70;;;13.90;;
77400;SDS011;66855;45.414;11.082;2023-05-07T02:00:32;20.10;;;14.20;;
77400;SDS011;66855;45.414;11.082;2023-05-07T02:02:59;15.70;;;13.30;;
77400;SDS011;66855;45.414;11.082;2023-05-07T02:05:31;15.40;;;13.30;;
77400;SDS011;66855;45.414;11.082;2023-05-07T02:08:03;17.60;;;14.20;;
77400;SDS011;66855;45.414;11.082;2023-05-07T02:10:30;17.90;;;13.80;;
77400;SDS011;66855;45.414;11.082;2023-05-07T02:12:58;16.20;;;13.00;;
77400;SDS011;66855;45.414;11.082;2023-05-07T02:15:26;16.00;;;12.90;;
77400;SDS011;66855;45.414;11.082;2023-05-07T02:18:03;17.40;;;14.40;;
77400;SDS011;66855;45.414;11.082;2023-05-07T02:20:33;17.50;;;14.30;;
77400;SDS011;66855;45.414;11.082;2023-05-07T02:23:01;18.10;;;15.10;;
77400;SDS011;66855;45.414;11.082;2023-05-07T02:25:28;18.10;;;14.80;;
77400;SDS011;66855;45.414;11.082;2023-05-07T02:27:56;19.70;;;15.40;;
77400;SDS011;66855;45.414;11.082;2023-05-07T02:30:29;19.80;;;15.70;;
77400;SDS011;66855;45.414;11.082;2023-05-07T02:32:56;18.20;;;15.00;;
77400;SDS011;66855;45.414;11.082;2023-05-07T02:35:24;17.70;;;14.00;;
77400;SDS011;66855;45.414;11.082;2023-05-07T02:40:18;19.60;;;16.90;;
77400;SDS011;66855;45.414;11.082;2023-05-07T02:42:45;18.50;;;15.20;;
77400;SDS011;66855;45.414;11.082;2023-05-07T02:45:12;19.60;;;16.60;;
77400;SDS011;66855;45.414;11.082;2023-05-07T02:47:40;22.10;;;17.40;;
77400;SDS011;66855;45.414;11.082;2023-05-07T02:50:07;19.70;;;15.70;;
77400;SDS011;66855;45.414;11.082;2023-05-07T02:52:35;19.10;;;16.30;;
77400;SDS011;66855;45.414;11.082;2023-05-07T02:55:02;20.50;;;16.80;;
77400;SDS011;66855;45.414;11.082;2023-05-07T02:57:29;21.30;;;17.00;;
77400;SDS011;66855;45.414;11.082;2023-05-07T02:59:57;21.20;;;17.20;;
77400;SDS011;66855;45.414;11.082;2023-05-07T03:02:27;23.10;;;15.80;;
77400;SDS011;66855;45.414;11.082;2023-05-07T03:04:54;22.90;;;17.10;;
77400;SDS011;66855;45.414;11.082;2023-05-07T03:07:21;21.30;;;16.90;;
77400;SDS011;66855;45.414;11.082;2023-05-07T03:09:48;21.20;;;17.60;;
77400;SDS011;66855;45.414;11.082;2023-05-07T03:12:15;19.30;;;16.20;;
77400;SDS011;66855;45.414;11.082;2023-05-07T03:14:42;21.20;;;17.40;;
77400;SDS011;66855;45.414;11.082;2023-05-07T03:17:08;22.50;;;17.30;;
77400;SDS011;66855;45.414;11.082;2023-05-07T03:19:35;24.00;;;19.30;;
77400;SDS011;66855;45.414;11.082;2023-05-07T03:22:02;21.40;;;17.40;;
77400;SDS011;66855;45.414;11.082;2023-05-07T03:24:29;21.20;;;18.00;;
77400;SDS011;66855;45.414;11.082;2023-05-07T03:26:56;20.10;;;14.30;;
77400;SDS011;66855;45.414;11.082;2023-05-07T03:29:24;19.00;;;14.00;;
77400;SDS011;66855;45.414;11.082;2023-05-07T03:31:51;18.10;;;15.00;;
77400;SDS011;66855;45.414;11.082;2023-05-07T03:34:18;15.30;;;13.10;;
77400;SDS011;66855;45.414;11.082;2023-05-07T03:36:49;17.90;;;13.10;;
77400;SDS011;66855;45.414;11.082;2023-05-07T03:39:17;17.40;;;13.60;;
77400;SDS011;66855;45.414;11.082;2023-05-07T03:41:44;17.60;;;12.10;;
77400;SDS011;66855;45.414;11.082;2023-05-07T03:44:11;16.70;;;13.30;;
77400;SDS011;66855;45.414;11.082;2023-05-07T03:46:38;15.60;;;12.30;;
77400;SDS011;66855;45.414;11.082;2023-05-07T03:49:04;15.70;;;11.60;;
77400;SDS011;66855;45.414;11.082;2023-05-07T03:51:31;14.80;;;11.30;;
77400;SDS011;66855;45.414;11.082;2023-05-07T03:53:59;13.00;;;11.60;;
77400;SDS011;66855;45.414;11.082;2023-05-07T03:56:27;14.10;;;11.80;;
77400;SDS011;66855;45.414;11.082;2023-05-07T03:58:55;14.10;;;11.00;;
77400;SDS011;66855;45.414;11.082;2023-05-07T04:01:22;14.10;;;11.40;;
77400;SDS011;66855;45.414;11.082;2023-05-07T04:03:50;15.20;;;12.50;;
77400;SDS011;66855;45.414;11.082;2023-05-07T04:06:17;28.60;;;19.40;;
77400;SDS011;66855;45.414;11.082;2023-05-07T04:08:46;18.40;;;14.40;;
77400;SDS011;66855;45.414;11.082;2023-05-07T04:11:12;20.60;;;14.20;;
77400;SDS011;66855;45.414;11.082;2023-05-07T04:13:39;17.00;;;12.80;;
77400;SDS011;66855;45.414;11.082;2023-05-07T04:16:08;14.80;;;11.90;;
77400;SDS011;66855;45.414;11.082;2023-05-07T04:18:35;16.00;;;12.50;;
77400;SDS011;66855;45.414;11.082;2023-05-07T04:21:03;13.90;;;11.50;;
77400;SDS011;66855;45.414;11.082;2023-05-07T04:23:30;14.70;;;12.50;;
77400;SDS011;66855;45.414;11.082;2023-05-07T04:25:59;15.50;;;11.50;;
77400;SDS011;66855;45.414;11.082;2023-05-07T04:28:37;13.20;;;10.50;;
77400;SDS011;66855;45.414;11.082;2023-05-07T04:31:05;13.10;;;10.30;;
77400;SDS011;66855;45.414;11.082;2023-05-07T04:33:33;14.30;;;10.90;;
77400;SDS011;66855;45.414;11.082;2023-05-07T04:36:01;15.60;;;11.20;;
77400;SDS011;66855;45.414;11.082;2023-05-07T04:38:31;15.10;;;11.40;;
77400;SDS011;66855;45.414;11.082;2023-05-07T04:41:05;14.70;;;11.50;;
77400;SDS011;66855;45.414;11.082;2023-05-07T04:43:36;14.90;;;12.00;;
77400;SDS011;66855;45.414;11.082;2023-05-07T04:46:03;16.60;;;12.70;;
77400;SDS011;66855;45.414;11.082;2023-05-07T04:48:30;16.80;;;11.90;;
77400;SDS011;66855;45.414;11.082;2023-05-07T04:50:57;16.10;;;11.30;;
77400;SDS011;66855;45.414;11.082;2023-05-07T04:53:24;15.10;;;12.20;;
77400;SDS011;66855;45.414;11.082;2023-05-07T04:55:55;15.40;;;12.80;;
77400;SDS011;66855;45.414;11.082;2023-05-07T04:58:24;13.90;;;12.10;;
77400;SDS011;66855;45.414;11.082;2023-05-07T05:00:51;14.50;;;12.90;;
77400;SDS011;66855;45.414;11.082;2023-05-07T05:03:18;16.60;;;12.90;;
77400;SDS011;66855;45.414;11.082;2023-05-07T05:05:45;17.40;;;13.30;;
77400;SDS011;66855;45.414;11.082;2023-05-07T05:08:12;18.60;;;12.70;;
77400;SDS011;66855;45.414;11.082;2023-05-07T05:10:40;15.80;;;13.40;;
77400;SDS011;66855;45.414;11.082;2023-05-07T05:15:36;15.90;;;13.30;;
77400;SDS011;66855;45.414;11.082;2023-05-07T05:18:03;15.00;;;13.30;;
77400;SDS011;66855;45.414;11.082;2023-05-07T05:20:30;16.90;;;13.10;;
77400;SDS011;66855;45.414;11.082;2023-05-07T05:22:56;16.10;;;13.20;;
77400;SDS011;66855;45.414;11.082;2023-05-07T05:25:23;17.80;;;14.30;;
77400;SDS011;66855;45.414;11.082;2023-05-07T05:27:50;19.30;;;15.70;;
77400;SDS011;66855;45.414;11.082;2023-05-07T05:30:17;21.00;;;15.40;;
77400;SDS011;66855;45.414;11.082;2023-05-07T05:32:46;17.80;;;15.20;;
77400;SDS011;66855;45.414;11.082;2023-05-07T05:35:13;19.70;;;15.10;;
77400;SDS011;66855;45.414;11.082;2023-05-07T05:37:40;19.10;;;15.00;;
77400;SDS011;66855;45.414;11.082;2023-05-07T05:40:08;19.90;;;15.00;;
77400;SDS011;66855;45.414;11.082;2023-05-07T05:42:36;20.60;;;16.00;;
77400;SDS011;66855;45.414;11.082;2023-05-07T05:45:03;20.40;;;16.70;;
77400;SDS011;66855;45.414;11.082;2023-05-07T05:47:31;19.30;;;15.40;;
77400;SDS011;66855;45.414;11.082;2023-05-07T05:49:58;17.50;;;15.50;;
77400;SDS011;66855;45.414;11.082;2023-05-07T05:52:25;19.00;;;15.60;;
77400;SDS011;66855;45.414;11.082;2023-05-07T05:54:53;19.20;;;17.00;;
77400;SDS011;66855;45.414;11.082;2023-05-07T05:57:20;19.00;;;15.50;;
77400;SDS011;66855;45.414;11.082;2023-05-07T05:59:48;20.70;;;15.60;;
77400;SDS011;66855;45.414;11.082;2023-05-07T06:02:15;22.50;;;14.50;;
77400;SDS011;66855;45.414;11.082;2023-05-07T06:04:42;25.10;;;16.90;;
77400;SDS011;66855;45.414;11.082;2023-05-07T06:07:10;24.00;;;16.00;;
77400;SDS011;66855;45.414;11.082;2023-05-07T06:09:37;26.10;;;17.50;;
77400;SDS011;66855;45.414;11.082;2023-05-07T06:12:04;19.10;;;14.60;;
77400;SDS011;66855;45.414;11.082;2023-05-07T06:14:32;18.60;;;15.50;;
77400;SDS011;66855;45.414;11.082;2023-05-07T06:16:59;19.70;;;15.90;;
77400;SDS011;66855;45.414;11.082;2023-05-07T06:19:26;24.40;;;17.30;;
77400;SDS011;66855;45.414;11.082;2023-05-07T06:21:55;20.40;;;18.20;;
77400;SDS011;66855;45.414;11.082;2023-05-07T06:24:27;18.70;;;16.00;;
77400;SDS011;66855;45.414;11.082;2023-05-07T06:26:54;18.60;;;15.30;;
77400;SDS011;66855;45.414;11.082;2023-05-07T06:29:21;20.90;;;16.40;;
77400;SDS011;66855;45.414;11.082;2023-05-07T06:31:49;20.20;;;16.20;;
77400;SDS011;66855;45.414;11.082;2023-05-07T06:34:16;17.90;;;14.50;;
77400;SDS011;66855;45.414;11.082;2023-05-07T06:36:43;18.60;;;16.00;;
77400;SDS011;66855;45.414;11.082;2023-05-07T06:39:24;18.90;;;16.70;;
77400;SDS011;66855;45.414;11.082;2023-05-07T06:41:51;24.20;;;19.40;;
77400;SDS011;66855;45.414;11.082;2023-05-07T06:44:24;24.40;;;17.40;;
77400;SDS011;66855;45.414;11.082;2023-05-07T06:47:07;18.90;;;15.90;;
77400;SDS011;66855;45.414;11.082;2023-05-07T06:49:37;20.60;;;16.80;;
77400;SDS011;66855;45.414;11.082;2023-05-07T06:52:05;19.30;;;16.80;;
77400;SDS011;66855;45.414;11.082;2023-05-07T06:54:33;18.90;;;16.90;;
77400;SDS011;66855;45.414;11.082;2023-05-07T06:57:00;20.40;;;17.50;;
77400;SDS011;66855;45.414;11.082;2023-05-07T06:59:27;19.10;;;17.00;;
77400;SDS011;66855;45.414;11.082;2023-05-07T07:01:58;21.00;;;17.20;;
77400;SDS011;66855;45.414;11.082;2023-05-07T07:04:26;22.00;;;17.60;;
77400;SDS011;66855;45.414;11.082;2023-05-07T07:07:00;19.80;;;16.10;;
77400;SDS011;66855;45.414;11.082;2023-05-07T07:09:28;18.60;;;16.60;;
77400;SDS011;66855;45.414;11.082;2023-05-07T07:14:23;20.90;;;16.70;;
77400;SDS011;66855;45.414;11.082;2023-05-07T07:16:52;18.90;;;15.70;;
77400;SDS011;66855;45.414;11.082;2023-05-07T07:19:22;21.10;;;17.50;;
77400;SDS011;66855;45.414;11.082;2023-05-07T07:21:51;19.60;;;16.60;;
77400;SDS011;66855;45.414;11.082;2023-05-07T07:24:18;20.80;;;16.50;;
77400;SDS011;66855;45.414;11.082;2023-05-07T07:26:51;21.10;;;17.60;;
77400;SDS011;66855;45.414;11.082;2023-05-07T07:29:22;19.10;;;16.90;;
77400;SDS011;66855;45.414;11.082;2023-05-07T07:31:49;19.90;;;16.80;;
77400;SDS011;66855;45.414;11.082;2023-05-07T07:34:16;21.00;;;18.80;;
77400;SDS011;66855;45.414;11.082;2023-05-07T07:36:44;22.30;;;17.80;;
77400;SDS011;66855;45.414;11.082;2023-05-07T07:39:14;20.10;;;17.20;;
77400;SDS011;66855;45.414;11.082;2023-05-07T07:41:42;19.80;;;16.90;;
77400;SDS011;66855;45.414;11.082;2023-05-07T07:44:13;19.60;;;17.50;;
77400;SDS011;66855;45.414;11.082;2023-05-07T07:46:46;18.30;;;16.40;;
77400;SDS011;66855;45.414;11.082;2023-05-07T07:49:14;19.00;;;16.50;;
77400;SDS011;66855;45.414;11.082;2023-05-07T07:51:43;21.50;;;16.90;;
77400;SDS011;66855;45.414;11.082;2023-05-07T07:54:10;18.80;;;15.50;;
77400;SDS011;66855;45.414;11.082;2023-05-07T07:56:40;17.00;;;15.20;;
77400;SDS011;66855;45.414;11.082;2023-05-07T07:59:07;20.40;;;14.70;;
77400;SDS011;66855;45.414;11.082;2023-05-07T08:01:38;17.70;;;15.80;;
77400;SDS011;66855;45.414;11.082;2023-05-07T08:04:04;17.80;;;14.60;;
77400;SDS011;66855;45.414;11.082;2023-05-07T08:06:36;17.60;;;15.70;;
77400;SDS011;66855;45.414;11.082;2023-05-07T08:09:07;17.60;;;15.30;;
77400;SDS011;66855;45.414;11.082;2023-05-07T08:11:35;14.00;;;11.30;;
77400;SDS011;66855;45.414;11.082;2023-05-07T08:14:02;18.30;;;15.10;;
77400;SDS011;66855;45.414;11.082;2023-05-07T08:16:29;16.90;;;14.20;;
77400;SDS011;66855;45.414;11.082;2023-05-07T08:18:57;15.70;;;13.90;;
77400;SDS011;66855;45.414;11.082;2023-05-07T08:21:25;17.80;;;14.60;;
77400;SDS011;66855;45.414;11.082;2023-05-07T08:23:52;16.20;;;14.50;;
77400;SDS011;66855;45.414;11.082;2023-05-07T08:26:21;15.10;;;13.50;;
77400;SDS011;66855;45.414;11.082;2023-05-07T08:28:48;15.10;;;12.90;;
77400;SDS011;66855;45.414;11.082;2023-05-07T08:31:15;15.40;;;13.80;;
77400;SDS011;66855;45.414;11.082;2023-05-07T08:33:43;16.10;;;14.40;;
77400;SDS011;66855;45.414;11.082;2023-05-07T08:36:10;14.70;;;13.10;;
77400;SDS011;66855;45.414;11.082;2023-05-07T08:38:37;17.30;;;14.10;;
77400;SDS011;66855;45.414;11.082;2023-05-07T08:41:08;16.80;;;14.60;;
77400;SDS011;66855;45.414;11.082;2023-05-07T08:43:42;18.00;;;15.50;;
77400;SDS011;66855;45.414;11.082;2023-05-07T08:46:19;16.50;;;14.80;;
77400;SDS011;66855;45.414;11.082;2023-05-07T08:48:50;17.10;;;15.30;;
77400;SDS011;66855;45.414;11.082;2023-05-07T08:51:20;16.70;;;14.90;;
77400;SDS011;66855;45.414;11.082;2023-05-07T08:53:49;19.50;;;15.30;;
77400;SDS011;66855;45.414;11.082;2023-05-07T08:56:22;16.50;;;14.80;;
77400;SDS011;66855;45.414;11.082;2023-05-07T08:58:53;16.70;;;15.00;;
77400;SDS011;66855;45.414;11.082;2023-05-07T09:01:26;16.50;;;13.90;;
77400;SDS011;66855;45.414;11.082;2023-05-07T09:03:53;16.60;;;14.80;;
77400;SDS011;66855;45.414;11.082;2023-05-07T09:06:22;14.50;;;12.90;;
77400;SDS011;66855;45.414;11.082;2023-05-07T09:08:50;15.00;;;13.50;;
77400;SDS011;66855;45.414;11.082;2023-05-07T09:11:22;14.00;;;12.60;;
77400;SDS011;66855;45.414;11.082;2023-05-07T09:13:56;18.40;;;16.50;;
77400;SDS011;66855;45.414;11.082;2023-05-07T09:16:31;16.40;;;14.20;;
77400;SDS011;66855;45.414;11.082;2023-05-07T09:18:59;17.40;;;14.70;;
77400;SDS011;66855;45.414;11.082;2023-05-07T09:21:29;15.50;;;13.70;;
77400;SDS011;66855;45.414;11.082;2023-05-07T09:23:58;16.50;;;14.50;;
77400;SDS011;66855;45.414;11.082;2023-05-07T09:26:33;16.40;;;14.10;;
77400;SDS011;66855;45.414;11.082;2023-05-07T09:29:02;16.70;;;14.90;;
77400;SDS011;66855;45.414;11.082;2023-05-07T09:31:30;16.40;;;14.80;;
77400;SDS011;66855;45.414;11.082;2023-05-07T09:33:57;15.40;;;13.90;;
77400;SDS011;66855;45.414;11.082;2023-05-07T09:36:28;14.00;;;12.60;;
77400;SDS011;66855;45.414;11.082;2023-05-07T09:39:14;15.80;;;14.10;;
77400;SDS011;66855;45.414;11.082;2023-05-07T09:41:44;14.50;;;12.90;;
77400;SDS011;66855;45.414;11.082;2023-05-07T09:44:20;15.60;;;14.10;;
77400;SDS011;66855;45.414;11.082;2023-05-07T09:46:53;14.60;;;13.20;;
77400;SDS011;66855;45.414;11.082;2023-05-07T09:49:28;14.90;;;13.50;;
77400;SDS011;66855;45.414;11.082;2023-05-07T09:52:04;15.20;;;13.60;;
77400;SDS011;66855;45.414;11.082;2023-05-07T09:54:36;13.60;;;12.20;;
77400;SDS011;66855;45.414;11.082;2023-05-07T09:57:07;13.30;;;11.90;;
77400;SDS011;66855;45.414;11.082;2023-05-07T09:59:36;13.50;;;11.90;;
77400;SDS011;66855;45.414;11.082;2023-05-07T10:02:09;10.90;;;9.60;;
77400;SDS011;66855;45.414;11.082;2023-05-07T10:04:44;12.20;;;11.00;;
77400;SDS011;66855;45.414;11.082;2023-05-07T10:07:13;13.00;;;11.20;;
77400;SDS011;66855;45.414;11.082;2023-05-07T10:12:17;13.60;;;12.10;;
77400;SDS011;66855;45.414;11.082;2023-05-07T10:14:48;13.90;;;12.00;;
77400;SDS011;66855;45.414;11.082;2023-05-07T10:17:16;14.40;;;13.00;;
77400;SDS011;66855;45.414;11.082;2023-05-07T10:19:46;11.80;;;10.60;;
77400;SDS011;66855;45.414;11.082;2023-05-07T10:22:14;11.80;;;9.90;;
77400;SDS011;66855;45.414;11.082;2023-05-07T10:24:43;11.50;;;10.30;;
77400;SDS011;66855;45.414;11.082;2023-05-07T10:27:14;10.70;;;9.60;;
77400;SDS011;66855;45.414;11.082;2023-05-07T10:29:56;10.10;;;9.10;;
77400;SDS011;66855;45.414;11.082;2023-05-07T10:32:49;10.40;;;9.40;;
77400;SDS011;66855;45.414;11.082;2023-05-07T10:35:29;11.00;;;9.80;;
77400;SDS011;66855;45.414;11.082;2023-05-07T10:38:00;9.90;;;8.90;;
77400;SDS011;66855;45.414;11.082;2023-05-07T10:40:32;10.50;;;8.90;;
77400;SDS011;66855;45.414;11.082;2023-05-07T10:43:01;9.80;;;8.20;;
77400;SDS011;66855;45.414;11.082;2023-05-07T10:46:14;9.10;;;8.10;;
77400;SDS011;66855;45.414;11.082;2023-05-07T10:49:12;8.90;;;7.90;;
77400;SDS011;66855;45.414;11.082;2023-05-07T10:55:23;7.20;;;6.50;;
77400;SDS011;66855;45.414;11.082;2023-05-07T10:58:27;8.10;;;7.30;;
77400;SDS011;66855;45.414;11.082;2023-05-07T11:04:44;5.90;;;5.30;;
77400;SDS011;66855;45.414;11.082;2023-05-07T11:07:32;7.10;;;6.40;;
77400;SDS011;66855;45.414;11.082;2023-05-07T11:11:10;7.90;;;7.00;;
77400;SDS011;66855;45.414;11.082;2023-05-07T11:13:42;7.20;;;6.40;;
77400;SDS011;66855;45.414;11.082;2023-05-07T11:16:35;7.10;;;6.40;;
77400;SDS011;66855;45.414;11.082;2023-05-07T11:19:15;5.90;;;5.30;;
77400;SDS011;66855;45.414;11.082;2023-05-07T11:22:02;5.80;;;5.10;;
77400;SDS011;66855;45.414;11.082;2023-05-07T11:24:51;6.20;;;5.60;;
77400;SDS011;66855;45.414;11.082;2023-05-07T11:27:26;6.10;;;5.50;;
77400;SDS011;66855;45.414;11.082;2023-05-07T11:29:55;7.00;;;6.30;;
77400;SDS011;66855;45.414;11.082;2023-05-07T11:32:24;6.90;;;6.30;;
77400;SDS011;66855;45.414;11.082;2023-05-07T11:34:59;6.60;;;5.90;;
77400;SDS011;66855;45.414;11.082;2023-05-07T11:37:28;6.70;;;6.00;;
77400;SDS011;66855;45.414;11.082;2023-05-07T11:40:04;5.80;;;5.00;;
77400;SDS011;66855;45.414;11.082;2023-05-07T11:42:47;6.80;;;6.10;;
77400;SDS011;66855;45.414;11.082;2023-05-07T11:45:39;8.00;;;6.70;;
77400;SDS011;66855;45.414;11.082;2023-05-07T11:48:09;7.50;;;5.90;;
77400;SDS011;66855;45.414;11.082;2023-05-07T11:50:53;6.70;;;6.10;;
77400;SDS011;66855;45.414;11.082;2023-05-07T11:53:24;8.00;;;6.80;;
77400;SDS011;66855;45.414;11.082;2023-05-07T11:56:11;9.90;;;9.00;;
77400;SDS011;66855;45.414;11.082;2023-05-07T11:58:49;7.30;;;6.60;;
77400;SDS011;66855;45.414;11.082;2023-05-07T12:01:26;7.00;;;6.00;;
77400;SDS011;66855;45.414;11.082;2023-05-07T12:03:55;6.90;;;6.20;;
77400;SDS011;66855;45.414;11.082;2023-05-07T12:06:35;10.10;;;9.20;;
77400;SDS011;66855;45.414;11.082;2023-05-07T12:09:15;10.10;;;9.00;;
77400;SDS011;66855;45.414;11.082;2023-05-07T12:11:42;9.30;;;8.20;;
77400;SDS011;66855;45.414;11.082;2023-05-07T12:14:15;9.00;;;7.70;;
77400;SDS011;66855;45.414;11.082;2023-05-07T12:16:45;8.50;;;6.10;;
77400;SDS011;66855;45.414;11.082;2023-05-07T12:19:24;8.60;;;7.70;;
77400;SDS011;66855;45.414;11.082;2023-05-07T12:21:53;8.50;;;7.10;;
77400;SDS011;66855;45.414;11.082;2023-05-07T12:24:43;9.00;;;7.30;;
77400;SDS011;66855;45.414;11.082;2023-05-07T12:27:16;9.50;;;7.80;;
77400;SDS011;66855;45.414;11.082;2023-05-07T12:29:58;7.60;;;6.90;;
77400;SDS011;66855;45.414;11.082;2023-05-07T12:32:26;9.20;;;8.30;;
77400;SDS011;66855;45.414;11.082;2023-05-07T12:34:54;8.70;;;7.60;;
77400;SDS011;66855;45.414;11.082;2023-05-07T12:37:27;8.50;;;7.70;;
77400;SDS011;66855;45.414;11.082;2023-05-07T12:40:09;7.90;;;6.90;;
77400;SDS011;66855;45.414;11.082;2023-05-07T12:42:55;8.00;;;7.10;;
77400;SDS011;66855;45.414;11.082;2023-05-07T12:46:03;9.30;;;8.40;;
77400;SDS011;66855;45.414;11.082;2023-05-07T12:48:33;9.40;;;7.80;;
77400;SDS011;66855;45.414;11.082;2023-05-07T12:51:08;7.90;;;7.10;;
77400;SDS011;66855;45.414;11.082;2023-05-07T12:53:39;8.40;;;7.60;;
77400;SDS011;66855;45.414;11.082;2023-05-07T12:56:09;8.30;;;7.50;;
77400;SDS011;66855;45.414;11.082;2023-05-07T12:58:36;11.10;;;8.20;;
77400;SDS011;66855;45.414;11.082;2023-05-07T13:01:11;11.20;;;8.30;;
77400;SDS011;66855;45.414;11.082;2023-05-07T13:03:47;10.40;;;9.40;;
77400;SDS011;66855;45.414;11.082;2023-05-07T13:06:15;9.70;;;8.80;;
77400;SDS011;66855;45.414;11.082;2023-05-07T13:08:43;9.20;;;8.20;;
77400;SDS011;66855;45.414;11.082;2023-05-07T13:11:13;9.80;;;8.40;;
77400;SDS011;66855;45.414;11.082;2023-05-07T13:13:40;8.90;;;7.90;;
77400;SDS011;66855;45.414;11.082;2023-05-07T13:16:10;8.40;;;7.60;;
77400;SDS011;66855;45.414;11.082;2023-05-07T13:18:42;9.30;;;7.40;;
77400;SDS011;66855;45.414;11.082;2023-05-07T13:21:13;8.30;;;7.50;;
77400;SDS011;66855;45.414;11.082;2023-05-07T13:23:40;9.90;;;8.80;;
77400;SDS011;66855;45.414;11.082;2023-05-07T13:26:08;10.20;;;9.10;;
77400;SDS011;66855;45.414;11.082;2023-05-07T13:28:52;8.70;;;7.80;;
77400;SDS011;66855;45.414;11.082;2023-05-07T13:31:21;9.40;;;8.40;;
77400;SDS011;66855;45.414;11.082;2023-05-07T13:33:48;8.20;;;7.40;;
77400;SDS011;66855;45.414;11.082;2023-05-07T13:38:47;7.40;;;6.60;;
77400;SDS011;66855;45.414;11.082;2023-05-07T13:41:17;8.50;;;7.10;;
77400;SDS011;66855;45.414;11.082;2023-05-07T13:43:50;8.80;;;6.90;;
77400;SDS011;66855;45.414;11.082;2023-05-07T13:46:22;7.90;;;7.20;;
77400;SDS011;66855;45.414;11.082;2023-05-07T13:48:50;9.40;;;8.40;;
77400;SDS011;66855;45.414;11.082;2023-05-07T13:51:18;9.50;;;8.60;;
77400;SDS011;66855;45.414;11.082;2023-05-07T13:53:45;9.80;;;8.20;;
77400;SDS011;66855;45.414;11.082;2023-05-07T13:56:12;10.00;;;8.40;;
77400;SDS011;66855;45.414;11.082;2023-05-07T13:58:38;9.60;;;8.50;;
77400;SDS011;66855;45.414;11.082;2023-05-07T14:01:25;10.20;;;9.20;;
77400;SDS011;66855;45.414;11.082;2023-05-07T14:03:52;11.10;;;9.50;;
77400;SDS011;66855;45.414;11.082;2023-05-07T14:06:20;8.80;;;7.90;;
77400;SDS011;66855;45.414;11.082;2023-05-07T14:11:20;10.10;;;8.80;;
77400;SDS011;66855;45.414;11.082;2023-05-07T14:13:47;9.80;;;8.10;;
77400;SDS011;66855;45.414;11.082;2023-05-07T14:16:15;9.80;;;8.80;;
77400;SDS011;66855;45.414;11.082;2023-05-07T14:18:43;10.30;;;8.40;;
77400;SDS011;66855;45.414;11.082;2023-05-07T14:21:12;10.40;;;9.40;;
77400;SDS011;66855;45.414;11.082;2023-05-07T14:23:40;9.20;;;8.20;;
77400;SDS011;66855;45.414;11.082;2023-05-07T14:26:07;8.80;;;8.00;;
77400;SDS011;66855;45.414;11.082;2023-05-07T14:28:35;8.40;;;7.60;;
77400;SDS011;66855;45.414;11.082;2023-05-07T14:31:06;9.20;;;8.30;;
77400;SDS011;66855;45.414;11.082;2023-05-07T14:33:33;10.10;;;8.40;;
77400;SDS011;66855;45.414;11.082;2023-05-07T14:36:00;7.30;;;6.60;;
77400;SDS011;66855;45.414;11.082;2023-05-07T14:40:55;8.30;;;7.20;;
77400;SDS011;66855;45.414;11.082;2023-05-07T14:43:54;9.30;;;8.20;;
77400;SDS011;66855;45.414;11.082;2023-05-07T14:46:47;8.80;;;8.00;;
77400;SDS011;66855;45.414;11.082;2023-05-07T14:49:34;11.10;;;9.60;;
77400;SDS011;66855;45.414;11.082;2023-05-07T14:52:08;10.00;;;9.00;;
77400;SDS011;66855;45.414;11.082;2023-05-07T14:54:37;9.00;;;8.20;;
77400;SDS011;66855;45.414;11.082;2023-05-07T14:57:06;8.80;;;7.90;;
77400;SDS011;66855;45.414;11.082;2023-05-07T14:59:34;8.60;;;7.80;;
77400;SDS011;66855;45.414;11.082;2023-05-07T15:02:01;10.30;;;9.40;;
77400;SDS011;66855;45.414;11.082;2023-05-07T15:04:34;8.50;;;7.70;;